sensor_id;sensor_type;location;lat;lon;timestamp;P1;durP1;ratioP1;P2;durP2;ratioP2
71207;SDS011;58938;49.868;8.646;2024-01-11T00:01:48;95.68;;;31.35;;
71207;SDS011;58938;49.868;8.646;2024-01-11T00:04:14;98.07;;;32.67;;
71207;SDS011;58938;49.868;8.646;2024-01-11T00:06:41;93.72;;;31.65;;
71207;SDS011;58938;49.868;8.646;2024-01-11T00:09:07;84.40;;;30.65;;
71207;SDS011;58938;49.868;8.646;2024-01-11T00:11:33;92.78;;;31.40;;
71207;SDS011;58938;49.868;8.646;2024-01-11T00:13:59;84.43;;;27.30;;
71207;SDS011;58938;49.868;8.646;2024-01-11T00:16:25;104.20;;;33.33;;
71207;SDS011;58938;49.868;8.646;2024-01-11T00:18:51;98.00;;;31.63;;
71207;SDS011;58938;49.868;8.646;2024-01-11T00:21:17;102.53;;;34.40;;
71207;SDS011;58938;49.868;8.646;2024-01-11T00:23:43;89.68;;;30.55;;
71207;SDS011;58938;49.868;8.646;2024-01-11T00:26:11;73.37;;;27.37;;
71207;SDS011;58938;49.868;8.646;2024-01-11T00:28:38;90.25;;;30.90;;
71207;SDS011;58938;49.868;8.646;2024-01-11T00:31:04;102.93;;;33.55;;
71207;SDS011;58938;49.868;8.646;2024-01-11T00:33:30;89.45;;;32.17;;
71207;SDS011;58938;49.868;8.646;2024-01-11T00:35:56;97.63;;;32.90;;
71207;SDS011;58938;49.868;8.646;2024-01-11T00:38:22;82.35;;;28.33;;
71207;SDS011;58938;49.868;8.646;2024-01-11T00:40:48;89.25;;;30.90;;
71207;SDS011;58938;49.868;8.646;2024-01-11T00:43:14;97.13;;;31.10;;
71207;SDS011;58938;49.868;8.646;2024-01-11T00:45:40;76.93;;;27.63;;
71207;SDS011;58938;49.868;8.646;2024-01-11T00:48:06;81.40;;;29.30;;
71207;SDS011;58938;49.868;8.646;2024-01-11T00:50:32;90.72;;;28.35;;
71207;SDS011;58938;49.868;8.646;2024-01-11T00:52:58;71.07;;;27.85;;
71207;SDS011;58938;49.868;8.646;2024-01-11T00:55:24;83.78;;;28.63;;
71207;SDS011;58938;49.868;8.646;2024-01-11T00:57:50;80.75;;;27.30;;
71207;SDS011;58938;49.868;8.646;2024-01-11T01:00:16;81.68;;;29.33;;
71207;SDS011;58938;49.868;8.646;2024-01-11T01:02:42;94.00;;;29.58;;
71207;SDS011;58938;49.868;8.646;2024-01-11T01:05:08;86.10;;;29.98;;
71207;SDS011;58938;49.868;8.646;2024-01-11T01:07:34;79.05;;;28.63;;
71207;SDS011;58938;49.868;8.646;2024-01-11T01:10:00;97.53;;;30.08;;
71207;SDS011;58938;49.868;8.646;2024-01-11T01:12:26;85.40;;;30.25;;
71207;SDS011;58938;49.868;8.646;2024-01-11T01:14:54;87.30;;;30.50;;
71207;SDS011;58938;49.868;8.646;2024-01-11T01:17:21;81.87;;;29.70;;
71207;SDS011;58938;49.868;8.646;2024-01-11T01:19:47;89.15;;;31.70;;
71207;SDS011;58938;49.868;8.646;2024-01-11T01:22:13;77.30;;;29.48;;
71207;SDS011;58938;49.868;8.646;2024-01-11T01:24:39;85.55;;;30.83;;
71207;SDS011;58938;49.868;8.646;2024-01-11T01:27:05;99.15;;;31.33;;
71207;SDS011;58938;49.868;8.646;2024-01-11T01:29:31;82.65;;;31.98;;
71207;SDS011;58938;49.868;8.646;2024-01-11T01:31:57;100.47;;;33.03;;
71207;SDS011;58938;49.868;8.646;2024-01-11T01:34:23;92.90;;;30.77;;
71207;SDS011;58938;49.868;8.646;2024-01-11T01:36:49;78.57;;;29.93;;
71207;SDS011;58938;49.868;8.646;2024-01-11T01:39:15;79.50;;;29.45;;
71207;SDS011;58938;49.868;8.646;2024-01-11T01:41:41;81.60;;;32.95;;
71207;SDS011;58938;49.868;8.646;2024-01-11T01:44:07;78.57;;;29.40;;
71207;SDS011;58938;49.868;8.646;2024-01-11T01:46:33;81.28;;;31.48;;
71207;SDS011;58938;49.868;8.646;2024-01-11T01:49:00;72.53;;;26.42;;
71207;SDS011;58938;49.868;8.646;2024-01-11T01:51:26;65.40;;;28.13;;
71207;SDS011;58938;49.868;8.646;2024-01-11T01:53:54;75.13;;;29.08;;
71207;SDS011;58938;49.868;8.646;2024-01-11T01:56:21;83.30;;;32.07;;
71207;SDS011;58938;49.868;8.646;2024-01-11T01:58:48;81.28;;;28.77;;
71207;SDS011;58938;49.868;8.646;2024-01-11T02:01:16;77.68;;;31.52;;
71207;SDS011;58938;49.868;8.646;2024-01-11T02:03:42;71.88;;;29.75;;
71207;SDS011;58938;49.868;8.646;2024-01-11T02:06:09;74.40;;;29.23;;
71207;SDS011;58938;49.868;8.646;2024-01-11T02:08:35;73.93;;;29.63;;
71207;SDS011;58938;49.868;8.646;2024-01-11T02:11:01;77.32;;;28.67;;
71207;SDS011;58938;49.868;8.646;2024-01-11T02:13:28;65.88;;;27.85;;
71207;SDS011;58938;49.868;8.646;2024-01-11T02:15:54;64.78;;;27.23;;
71207;SDS011;58938;49.868;8.646;2024-01-11T02:18:20;69.38;;;27.45;;
71207;SDS011;58938;49.868;8.646;2024-01-11T02:20:46;66.87;;;26.90;;
71207;SDS011;58938;49.868;8.646;2024-01-11T02:23:14;61.15;;;26.70;;
71207;SDS011;58938;49.868;8.646;2024-01-11T02:25:40;69.03;;;27.02;;
71207;SDS011;58938;49.868;8.646;2024-01-11T02:28:06;67.15;;;27.70;;
71207;SDS011;58938;49.868;8.646;2024-01-11T02:30:33;74.72;;;29.75;;
71207;SDS011;58938;49.868;8.646;2024-01-11T02:32:59;65.57;;;25.38;;
71207;SDS011;58938;49.868;8.646;2024-01-11T02:35:25;58.47;;;24.40;;
71207;SDS011;58938;49.868;8.646;2024-01-11T02:37:51;65.43;;;26.23;;
71207;SDS011;58938;49.868;8.646;2024-01-11T02:40:18;66.50;;;27.93;;
71207;SDS011;58938;49.868;8.646;2024-01-11T02:42:44;59.47;;;26.40;;
71207;SDS011;58938;49.868;8.646;2024-01-11T02:45:10;66.00;;;27.60;;
71207;SDS011;58938;49.868;8.646;2024-01-11T02:47:37;63.67;;;26.83;;
71207;SDS011;58938;49.868;8.646;2024-01-11T02:50:03;65.57;;;25.58;;
71207;SDS011;58938;49.868;8.646;2024-01-11T02:52:29;65.57;;;25.73;;
71207;SDS011;58938;49.868;8.646;2024-01-11T02:54:55;65.97;;;26.63;;
71207;SDS011;58938;49.868;8.646;2024-01-11T02:57:21;68.57;;;25.60;;
71207;SDS011;58938;49.868;8.646;2024-01-11T02:59:47;57.83;;;26.52;;
71207;SDS011;58938;49.868;8.646;2024-01-11T03:02:13;72.03;;;26.90;;
71207;SDS011;58938;49.868;8.646;2024-01-11T03:04:39;64.85;;;27.08;;
71207;SDS011;58938;49.868;8.646;2024-01-11T03:07:05;73.25;;;26.75;;
71207;SDS011;58938;49.868;8.646;2024-01-11T03:09:31;64.27;;;27.00;;
71207;SDS011;58938;49.868;8.646;2024-01-11T03:11:58;63.05;;;27.17;;
71207;SDS011;58938;49.868;8.646;2024-01-11T03:14:24;64.22;;;27.02;;
71207;SDS011;58938;49.868;8.646;2024-01-11T03:16:50;61.40;;;26.05;;
71207;SDS011;58938;49.868;8.646;2024-01-11T03:19:16;59.83;;;25.00;;
71207;SDS011;58938;49.868;8.646;2024-01-11T03:21:42;58.50;;;25.55;;
71207;SDS011;58938;49.868;8.646;2024-01-11T03:24:08;63.05;;;24.70;;
71207;SDS011;58938;49.868;8.646;2024-01-11T03:26:34;65.00;;;29.33;;
71207;SDS011;58938;49.868;8.646;2024-01-11T03:29:00;61.97;;;27.23;;
71207;SDS011;58938;49.868;8.646;2024-01-11T03:31:26;64.80;;;26.98;;
71207;SDS011;58938;49.868;8.646;2024-01-11T03:33:52;65.63;;;25.25;;
71207;SDS011;58938;49.868;8.646;2024-01-11T03:36:22;59.70;;;27.87;;
71207;SDS011;58938;49.868;8.646;2024-01-11T03:38:48;67.95;;;26.15;;
71207;SDS011;58938;49.868;8.646;2024-01-11T03:41:14;50.47;;;22.90;;
71207;SDS011;58938;49.868;8.646;2024-01-11T03:43:40;58.60;;;25.00;;
71207;SDS011;58938;49.868;8.646;2024-01-11T03:46:06;57.53;;;24.13;;
71207;SDS011;58938;49.868;8.646;2024-01-11T03:48:32;68.05;;;27.35;;
71207;SDS011;58938;49.868;8.646;2024-01-11T03:51:00;65.78;;;25.10;;
71207;SDS011;58938;49.868;8.646;2024-01-11T03:53:26;72.18;;;26.88;;
71207;SDS011;58938;49.868;8.646;2024-01-11T03:55:52;59.90;;;26.07;;
71207;SDS011;58938;49.868;8.646;2024-01-11T03:58:18;55.15;;;22.83;;
71207;SDS011;58938;49.868;8.646;2024-01-11T04:00:44;62.75;;;23.92;;
71207;SDS011;58938;49.868;8.646;2024-01-11T04:03:10;63.85;;;26.15;;
71207;SDS011;58938;49.868;8.646;2024-01-11T04:05:36;64.63;;;24.75;;
71207;SDS011;58938;49.868;8.646;2024-01-11T04:08:05;62.47;;;25.17;;
71207;SDS011;58938;49.868;8.646;2024-01-11T04:10:34;62.50;;;24.23;;
71207;SDS011;58938;49.868;8.646;2024-01-11T04:13:00;63.67;;;26.30;;
71207;SDS011;58938;49.868;8.646;2024-01-11T04:15:26;72.55;;;28.55;;
71207;SDS011;58938;49.868;8.646;2024-01-11T04:17:52;76.28;;;29.75;;
71207;SDS011;58938;49.868;8.646;2024-01-11T04:20:18;67.05;;;27.83;;
71207;SDS011;58938;49.868;8.646;2024-01-11T04:22:44;68.83;;;24.90;;
71207;SDS011;58938;49.868;8.646;2024-01-11T04:25:10;56.88;;;24.50;;
71207;SDS011;58938;49.868;8.646;2024-01-11T04:27:36;65.38;;;26.65;;
71207;SDS011;58938;49.868;8.646;2024-01-11T04:30:02;66.35;;;26.02;;
71207;SDS011;58938;49.868;8.646;2024-01-11T04:32:28;63.57;;;24.27;;
71207;SDS011;58938;49.868;8.646;2024-01-11T04:34:54;59.78;;;24.70;;
71207;SDS011;58938;49.868;8.646;2024-01-11T04:37:20;66.70;;;27.00;;
71207;SDS011;58938;49.868;8.646;2024-01-11T04:39:46;67.22;;;27.13;;
71207;SDS011;58938;49.868;8.646;2024-01-11T04:42:12;55.92;;;24.00;;
71207;SDS011;58938;49.868;8.646;2024-01-11T04:44:38;67.88;;;25.50;;
71207;SDS011;58938;49.868;8.646;2024-01-11T04:47:04;63.38;;;24.70;;
71207;SDS011;58938;49.868;8.646;2024-01-11T04:49:30;67.28;;;26.52;;
71207;SDS011;58938;49.868;8.646;2024-01-11T04:51:56;63.70;;;24.83;;
71207;SDS011;58938;49.868;8.646;2024-01-11T04:54:24;66.53;;;26.13;;
71207;SDS011;58938;49.868;8.646;2024-01-11T04:56:50;68.05;;;26.48;;
71207;SDS011;58938;49.868;8.646;2024-01-11T04:59:16;72.68;;;28.08;;
71207;SDS011;58938;49.868;8.646;2024-01-11T05:01:42;72.93;;;28.37;;
71207;SDS011;58938;49.868;8.646;2024-01-11T05:04:08;63.80;;;26.55;;
71207;SDS011;58938;49.868;8.646;2024-01-11T05:06:34;72.22;;;28.63;;
71207;SDS011;58938;49.868;8.646;2024-01-11T05:09:00;73.22;;;28.33;;
71207;SDS011;58938;49.868;8.646;2024-01-11T05:11:26;61.83;;;25.00;;
71207;SDS011;58938;49.868;8.646;2024-01-11T05:13:52;65.38;;;25.45;;
71207;SDS011;58938;49.868;8.646;2024-01-11T05:16:22;67.93;;;27.60;;
71207;SDS011;58938;49.868;8.646;2024-01-11T05:18:49;59.70;;;26.55;;
71207;SDS011;58938;49.868;8.646;2024-01-11T05:21:15;62.67;;;26.98;;
71207;SDS011;58938;49.868;8.646;2024-01-11T05:23:41;62.47;;;24.70;;
71207;SDS011;58938;49.868;8.646;2024-01-11T05:26:10;70.03;;;25.98;;
71207;SDS011;58938;49.868;8.646;2024-01-11T05:28:36;60.20;;;22.42;;
71207;SDS011;58938;49.868;8.646;2024-01-11T05:31:05;65.22;;;23.70;;
71207;SDS011;58938;49.868;8.646;2024-01-11T05:33:31;59.90;;;24.93;;
71207;SDS011;58938;49.868;8.646;2024-01-11T05:35:57;64.15;;;26.75;;
71207;SDS011;58938;49.868;8.646;2024-01-11T05:38:23;60.42;;;25.73;;
71207;SDS011;58938;49.868;8.646;2024-01-11T05:40:49;60.00;;;24.42;;
71207;SDS011;58938;49.868;8.646;2024-01-11T05:43:15;64.40;;;25.40;;
71207;SDS011;58938;49.868;8.646;2024-01-11T05:45:41;51.05;;;23.60;;
71207;SDS011;58938;49.868;8.646;2024-01-11T05:48:07;61.97;;;23.13;;
71207;SDS011;58938;49.868;8.646;2024-01-11T05:50:33;64.93;;;27.10;;
71207;SDS011;58938;49.868;8.646;2024-01-11T05:52:59;66.07;;;25.73;;
71207;SDS011;58938;49.868;8.646;2024-01-11T05:55:25;63.53;;;25.52;;
71207;SDS011;58938;49.868;8.646;2024-01-11T05:57:51;62.47;;;26.60;;
71207;SDS011;58938;49.868;8.646;2024-01-11T06:00:17;65.50;;;25.83;;
71207;SDS011;58938;49.868;8.646;2024-01-11T06:02:43;58.83;;;25.95;;
71207;SDS011;58938;49.868;8.646;2024-01-11T06:05:09;67.32;;;27.55;;
71207;SDS011;58938;49.868;8.646;2024-01-11T06:07:35;71.75;;;26.70;;
71207;SDS011;58938;49.868;8.646;2024-01-11T06:10:01;76.83;;;29.27;;
71207;SDS011;58938;49.868;8.646;2024-01-11T06:12:28;60.53;;;23.88;;
71207;SDS011;58938;49.868;8.646;2024-01-11T06:14:54;59.75;;;25.02;;
71207;SDS011;58938;49.868;8.646;2024-01-11T06:17:20;59.15;;;24.23;;
71207;SDS011;58938;49.868;8.646;2024-01-11T06:19:46;58.42;;;23.85;;
71207;SDS011;58938;49.868;8.646;2024-01-11T06:22:12;65.43;;;25.87;;
71207;SDS011;58938;49.868;8.646;2024-01-11T06:24:38;67.15;;;25.52;;
71207;SDS011;58938;49.868;8.646;2024-01-11T06:27:04;65.38;;;26.45;;
71207;SDS011;58938;49.868;8.646;2024-01-11T06:29:30;62.90;;;25.50;;
71207;SDS011;58938;49.868;8.646;2024-01-11T06:31:56;61.47;;;24.95;;
71207;SDS011;58938;49.868;8.646;2024-01-11T06:34:21;63.53;;;26.50;;
71207;SDS011;58938;49.868;8.646;2024-01-11T06:36:47;65.00;;;26.48;;
71207;SDS011;58938;49.868;8.646;2024-01-11T06:39:13;60.20;;;25.30;;
71207;SDS011;58938;49.868;8.646;2024-01-11T06:41:39;58.35;;;25.27;;
71207;SDS011;58938;49.868;8.646;2024-01-11T06:44:05;72.18;;;26.35;;
71207;SDS011;58938;49.868;8.646;2024-01-11T06:46:31;60.17;;;26.08;;
71207;SDS011;58938;49.868;8.646;2024-01-11T06:48:57;71.00;;;27.10;;
71207;SDS011;58938;49.868;8.646;2024-01-11T06:51:23;66.50;;;26.23;;
71207;SDS011;58938;49.868;8.646;2024-01-11T06:53:49;61.35;;;24.98;;
71207;SDS011;58938;49.868;8.646;2024-01-11T06:56:16;64.40;;;26.80;;
71207;SDS011;58938;49.868;8.646;2024-01-11T06:58:42;66.87;;;26.57;;
71207;SDS011;58938;49.868;8.646;2024-01-11T07:01:09;61.88;;;25.02;;
71207;SDS011;58938;49.868;8.646;2024-01-11T07:03:34;69.75;;;27.27;;
71207;SDS011;58938;49.868;8.646;2024-01-11T07:06:00;64.63;;;25.00;;
71207;SDS011;58938;49.868;8.646;2024-01-11T07:08:28;59.70;;;24.27;;
71207;SDS011;58938;49.868;8.646;2024-01-11T07:10:54;64.90;;;25.83;;
71207;SDS011;58938;49.868;8.646;2024-01-11T07:13:19;77.05;;;29.35;;
71207;SDS011;58938;49.868;8.646;2024-01-11T07:15:45;68.55;;;26.25;;
71207;SDS011;58938;49.868;8.646;2024-01-11T07:18:13;65.87;;;26.50;;
71207;SDS011;58938;49.868;8.646;2024-01-11T07:20:39;68.35;;;28.15;;
71207;SDS011;58938;49.868;8.646;2024-01-11T07:23:05;71.10;;;27.88;;
71207;SDS011;58938;49.868;8.646;2024-01-11T07:25:31;65.03;;;24.58;;
71207;SDS011;58938;49.868;8.646;2024-01-11T07:27:57;70.68;;;25.67;;
71207;SDS011;58938;49.868;8.646;2024-01-11T07:30:23;62.97;;;24.92;;
71207;SDS011;58938;49.868;8.646;2024-01-11T07:32:49;70.20;;;25.55;;
71207;SDS011;58938;49.868;8.646;2024-01-11T07:35:15;70.32;;;27.08;;
71207;SDS011;58938;49.868;8.646;2024-01-11T07:37:41;76.50;;;27.80;;
71207;SDS011;58938;49.868;8.646;2024-01-11T07:40:07;65.45;;;25.23;;
71207;SDS011;58938;49.868;8.646;2024-01-11T07:42:37;63.65;;;25.65;;
71207;SDS011;58938;49.868;8.646;2024-01-11T07:45:06;63.83;;;25.98;;
71207;SDS011;58938;49.868;8.646;2024-01-11T07:47:32;66.32;;;27.83;;
71207;SDS011;58938;49.868;8.646;2024-01-11T07:49:59;69.20;;;26.90;;
71207;SDS011;58938;49.868;8.646;2024-01-11T07:52:25;83.43;;;30.38;;
71207;SDS011;58938;49.868;8.646;2024-01-11T07:54:51;65.35;;;27.30;;
71207;SDS011;58938;49.868;8.646;2024-01-11T07:57:19;63.58;;;27.15;;
71207;SDS011;58938;49.868;8.646;2024-01-11T07:59:44;68.07;;;27.83;;
71207;SDS011;58938;49.868;8.646;2024-01-11T08:02:10;70.90;;;26.30;;
71207;SDS011;58938;49.868;8.646;2024-01-11T08:04:36;65.28;;;26.98;;
71207;SDS011;58938;49.868;8.646;2024-01-11T08:07:04;75.07;;;30.83;;
71207;SDS011;58938;49.868;8.646;2024-01-11T08:09:30;69.30;;;25.83;;
71207;SDS011;58938;49.868;8.646;2024-01-11T08:11:56;78.45;;;28.98;;
71207;SDS011;58938;49.868;8.646;2024-01-11T08:14:22;67.70;;;28.90;;
71207;SDS011;58938;49.868;8.646;2024-01-11T08:16:49;75.47;;;29.13;;
71207;SDS011;58938;49.868;8.646;2024-01-11T08:19:15;73.70;;;29.45;;
71207;SDS011;58938;49.868;8.646;2024-01-11T08:21:41;73.20;;;29.50;;
71207;SDS011;58938;49.868;8.646;2024-01-11T08:24:08;70.45;;;27.10;;
71207;SDS011;58938;49.868;8.646;2024-01-11T08:26:34;66.68;;;27.80;;
71207;SDS011;58938;49.868;8.646;2024-01-11T08:29:01;66.38;;;26.88;;
71207;SDS011;58938;49.868;8.646;2024-01-11T08:31:27;72.95;;;27.42;;
71207;SDS011;58938;49.868;8.646;2024-01-11T08:33:53;78.63;;;32.23;;
71207;SDS011;58938;49.868;8.646;2024-01-11T08:36:19;70.95;;;28.73;;
71207;SDS011;58938;49.868;8.646;2024-01-11T08:38:45;78.70;;;29.88;;
71207;SDS011;58938;49.868;8.646;2024-01-11T08:41:11;75.65;;;30.45;;
71207;SDS011;58938;49.868;8.646;2024-01-11T08:43:37;77.73;;;28.90;;
71207;SDS011;58938;49.868;8.646;2024-01-11T08:46:04;79.75;;;29.02;;
71207;SDS011;58938;49.868;8.646;2024-01-11T08:48:30;77.68;;;29.95;;
71207;SDS011;58938;49.868;8.646;2024-01-11T08:50:56;62.78;;;26.00;;
71207;SDS011;58938;49.868;8.646;2024-01-11T08:53:22;67.72;;;26.45;;
71207;SDS011;58938;49.868;8.646;2024-01-11T08:55:47;86.53;;;31.48;;
71207;SDS011;58938;49.868;8.646;2024-01-11T08:58:13;74.88;;;28.55;;
71207;SDS011;58938;49.868;8.646;2024-01-11T09:00:39;79.13;;;30.63;;
71207;SDS011;58938;49.868;8.646;2024-01-11T09:03:05;90.47;;;33.85;;
71207;SDS011;58938;49.868;8.646;2024-01-11T09:05:31;71.18;;;28.15;;
71207;SDS011;58938;49.868;8.646;2024-01-11T09:07:57;78.80;;;28.42;;
71207;SDS011;58938;49.868;8.646;2024-01-11T09:10:23;76.63;;;28.73;;
71207;SDS011;58938;49.868;8.646;2024-01-11T09:12:50;76.50;;;30.35;;
71207;SDS011;58938;49.868;8.646;2024-01-11T09:15:16;73.05;;;30.55;;
71207;SDS011;58938;49.868;8.646;2024-01-11T09:17:42;76.32;;;29.90;;
71207;SDS011;58938;49.868;8.646;2024-01-11T09:20:09;83.53;;;30.53;;
71207;SDS011;58938;49.868;8.646;2024-01-11T09:22:39;97.82;;;33.38;;
71207;SDS011;58938;49.868;8.646;2024-01-11T09:25:05;72.22;;;28.13;;
71207;SDS011;58938;49.868;8.646;2024-01-11T09:27:33;82.28;;;31.48;;
71207;SDS011;58938;49.868;8.646;2024-01-11T09:29:59;87.20;;;32.15;;
71207;SDS011;58938;49.868;8.646;2024-01-11T09:32:24;92.30;;;34.20;;
71207;SDS011;58938;49.868;8.646;2024-01-11T09:34:50;86.13;;;32.17;;
71207;SDS011;58938;49.868;8.646;2024-01-11T09:37:16;89.30;;;33.45;;
71207;SDS011;58938;49.868;8.646;2024-01-11T09:39:42;74.90;;;29.70;;
71207;SDS011;58938;49.868;8.646;2024-01-11T09:42:08;77.13;;;30.27;;
71207;SDS011;58938;49.868;8.646;2024-01-11T09:44:35;79.55;;;31.42;;
71207;SDS011;58938;49.868;8.646;2024-01-11T09:47:03;85.82;;;30.88;;
71207;SDS011;58938;49.868;8.646;2024-01-11T09:49:31;81.80;;;31.55;;
71207;SDS011;58938;49.868;8.646;2024-01-11T09:51:59;85.07;;;34.20;;
71207;SDS011;58938;49.868;8.646;2024-01-11T09:54:26;83.70;;;33.53;;
71207;SDS011;58938;49.868;8.646;2024-01-11T09:56:53;75.95;;;32.38;;
71207;SDS011;58938;49.868;8.646;2024-01-11T09:59:20;82.68;;;32.65;;
71207;SDS011;58938;49.868;8.646;2024-01-11T10:01:49;72.75;;;28.88;;
71207;SDS011;58938;49.868;8.646;2024-01-11T10:04:15;88.43;;;33.60;;
71207;SDS011;58938;49.868;8.646;2024-01-11T10:06:41;79.35;;;31.35;;
71207;SDS011;58938;49.868;8.646;2024-01-11T10:09:08;75.18;;;30.10;;
71207;SDS011;58938;49.868;8.646;2024-01-11T10:11:34;80.18;;;32.13;;
71207;SDS011;58938;49.868;8.646;2024-01-11T10:14:00;80.75;;;33.78;;
71207;SDS011;58938;49.868;8.646;2024-01-11T10:16:27;87.70;;;34.13;;
71207;SDS011;58938;49.868;8.646;2024-01-11T10:18:54;89.70;;;33.17;;
71207;SDS011;58938;49.868;8.646;2024-01-11T10:21:20;67.05;;;28.75;;
71207;SDS011;58938;49.868;8.646;2024-01-11T10:23:46;81.25;;;33.88;;
71207;SDS011;58938;49.868;8.646;2024-01-11T10:26:12;90.07;;;36.17;;
71207;SDS011;58938;49.868;8.646;2024-01-11T10:28:38;77.32;;;31.05;;
71207;SDS011;58938;49.868;8.646;2024-01-11T10:31:04;85.05;;;35.80;;
71207;SDS011;58938;49.868;8.646;2024-01-11T10:33:32;81.35;;;33.50;;
71207;SDS011;58938;49.868;8.646;2024-01-11T10:35:59;79.13;;;33.53;;
71207;SDS011;58938;49.868;8.646;2024-01-11T10:38:26;78.57;;;32.22;;
71207;SDS011;58938;49.868;8.646;2024-01-11T10:40:52;84.97;;;33.67;;
71207;SDS011;58938;49.868;8.646;2024-01-11T10:43:19;74.35;;;31.05;;
71207;SDS011;58938;49.868;8.646;2024-01-11T10:45:48;74.78;;;32.00;;
71207;SDS011;58938;49.868;8.646;2024-01-11T10:48:15;83.90;;;34.10;;
71207;SDS011;58938;49.868;8.646;2024-01-11T10:50:42;90.85;;;35.38;;
71207;SDS011;58938;49.868;8.646;2024-01-11T10:53:12;94.00;;;35.08;;
71207;SDS011;58938;49.868;8.646;2024-01-11T10:55:42;92.95;;;33.60;;
71207;SDS011;58938;49.868;8.646;2024-01-11T10:58:09;87.25;;;35.67;;
71207;SDS011;58938;49.868;8.646;2024-01-11T11:00:35;87.75;;;34.00;;
71207;SDS011;58938;49.868;8.646;2024-01-11T11:03:02;92.53;;;34.85;;
71207;SDS011;58938;49.868;8.646;2024-01-11T11:05:31;84.78;;;33.22;;
71207;SDS011;58938;49.868;8.646;2024-01-11T11:08:00;92.35;;;33.30;;
71207;SDS011;58938;49.868;8.646;2024-01-11T11:10:27;88.72;;;35.65;;
71207;SDS011;58938;49.868;8.646;2024-01-11T11:12:53;84.28;;;33.88;;
71207;SDS011;58938;49.868;8.646;2024-01-11T11:15:24;83.32;;;33.10;;
71207;SDS011;58938;49.868;8.646;2024-01-11T11:17:52;84.72;;;34.05;;
71207;SDS011;58938;49.868;8.646;2024-01-11T11:20:18;80.32;;;32.83;;
71207;SDS011;58938;49.868;8.646;2024-01-11T11:22:48;77.70;;;31.90;;
71207;SDS011;58938;49.868;8.646;2024-01-11T11:25:24;74.97;;;33.30;;
71207;SDS011;58938;49.868;8.646;2024-01-11T11:27:50;75.30;;;32.28;;
71207;SDS011;58938;49.868;8.646;2024-01-11T11:30:19;80.10;;;31.58;;
71207;SDS011;58938;49.868;8.646;2024-01-11T11:32:45;79.85;;;32.22;;
71207;SDS011;58938;49.868;8.646;2024-01-11T11:35:11;74.30;;;29.23;;
71207;SDS011;58938;49.868;8.646;2024-01-11T11:37:38;80.68;;;31.05;;
71207;SDS011;58938;49.868;8.646;2024-01-11T11:40:05;73.27;;;30.70;;
71207;SDS011;58938;49.868;8.646;2024-01-11T11:42:31;77.43;;;31.30;;
71207;SDS011;58938;49.868;8.646;2024-01-11T11:44:57;74.53;;;31.35;;
71207;SDS011;58938;49.868;8.646;2024-01-11T11:47:23;75.53;;;30.33;;
71207;SDS011;58938;49.868;8.646;2024-01-11T11:49:56;75.20;;;30.30;;
71207;SDS011;58938;49.868;8.646;2024-01-11T11:52:24;88.73;;;33.77;;
71207;SDS011;58938;49.868;8.646;2024-01-11T11:54:50;70.10;;;31.25;;
71207;SDS011;58938;49.868;8.646;2024-01-11T11:57:17;81.03;;;31.52;;
71207;SDS011;58938;49.868;8.646;2024-01-11T11:59:43;78.68;;;32.55;;
71207;SDS011;58938;49.868;8.646;2024-01-11T12:02:09;79.28;;;34.00;;
71207;SDS011;58938;49.868;8.646;2024-01-11T12:04:39;85.43;;;34.67;;
71207;SDS011;58938;49.868;8.646;2024-01-11T12:07:05;86.45;;;34.60;;
71207;SDS011;58938;49.868;8.646;2024-01-11T12:09:31;73.35;;;31.70;;
71207;SDS011;58938;49.868;8.646;2024-01-11T12:11:57;79.20;;;32.25;;
71207;SDS011;58938;49.868;8.646;2024-01-11T12:14:24;79.57;;;32.73;;
71207;SDS011;58938;49.868;8.646;2024-01-11T12:16:58;70.68;;;30.95;;
71207;SDS011;58938;49.868;8.646;2024-01-11T12:19:24;75.60;;;32.78;;
71207;SDS011;58938;49.868;8.646;2024-01-11T12:21:50;80.10;;;32.40;;
71207;SDS011;58938;49.868;8.646;2024-01-11T12:24:17;77.45;;;32.30;;
71207;SDS011;58938;49.868;8.646;2024-01-11T12:26:43;75.27;;;31.83;;
71207;SDS011;58938;49.868;8.646;2024-01-11T12:29:09;71.63;;;32.20;;
71207;SDS011;58938;49.868;8.646;2024-01-11T12:31:35;80.95;;;31.27;;
71207;SDS011;58938;49.868;8.646;2024-01-11T12:34:02;69.65;;;29.65;;
71207;SDS011;58938;49.868;8.646;2024-01-11T12:36:28;72.25;;;31.33;;
71207;SDS011;58938;49.868;8.646;2024-01-11T12:38:54;71.60;;;28.77;;
71207;SDS011;58938;49.868;8.646;2024-01-11T12:41:23;74.63;;;29.90;;
71207;SDS011;58938;49.868;8.646;2024-01-11T12:43:49;80.38;;;32.10;;
71207;SDS011;58938;49.868;8.646;2024-01-11T12:46:15;74.35;;;30.70;;
71207;SDS011;58938;49.868;8.646;2024-01-11T12:48:42;75.35;;;32.10;;
71207;SDS011;58938;49.868;8.646;2024-01-11T12:51:08;75.25;;;32.72;;
71207;SDS011;58938;49.868;8.646;2024-01-11T12:53:35;68.88;;;30.02;;
71207;SDS011;58938;49.868;8.646;2024-01-11T12:56:05;72.55;;;30.20;;
71207;SDS011;58938;49.868;8.646;2024-01-11T12:58:35;69.65;;;28.63;;
71207;SDS011;58938;49.868;8.646;2024-01-11T13:01:03;75.82;;;32.35;;
71207;SDS011;58938;49.868;8.646;2024-01-11T13:03:29;69.38;;;31.95;;
71207;SDS011;58938;49.868;8.646;2024-01-11T13:05:56;75.85;;;28.55;;
71207;SDS011;58938;49.868;8.646;2024-01-11T13:08:22;70.95;;;29.38;;
71207;SDS011;58938;49.868;8.646;2024-01-11T13:10:49;71.38;;;28.35;;
71207;SDS011;58938;49.868;8.646;2024-01-11T13:13:15;66.57;;;30.80;;
71207;SDS011;58938;49.868;8.646;2024-01-11T13:15:41;64.07;;;29.33;;
71207;SDS011;58938;49.868;8.646;2024-01-11T13:18:07;65.18;;;28.48;;
71207;SDS011;58938;49.868;8.646;2024-01-11T13:20:33;67.57;;;28.42;;
71207;SDS011;58938;49.868;8.646;2024-01-11T13:25:43;60.10;;;26.52;;
71207;SDS011;58938;49.868;8.646;2024-01-11T13:28:09;61.58;;;26.92;;
71207;SDS011;58938;49.868;8.646;2024-01-11T13:30:42;54.80;;;24.67;;
71207;SDS011;58938;49.868;8.646;2024-01-11T13:33:08;61.75;;;24.85;;
71207;SDS011;58938;49.868;8.646;2024-01-11T13:35:35;55.10;;;24.30;;
71207;SDS011;58938;49.868;8.646;2024-01-11T13:38:02;65.00;;;26.27;;
71207;SDS011;58938;49.868;8.646;2024-01-11T13:40:28;56.63;;;24.40;;
71207;SDS011;58938;49.868;8.646;2024-01-11T13:42:54;58.25;;;24.92;;
71207;SDS011;58938;49.868;8.646;2024-01-11T13:45:26;55.22;;;25.00;;
71207;SDS011;58938;49.868;8.646;2024-01-11T13:47:53;53.33;;;24.42;;
71207;SDS011;58938;49.868;8.646;2024-01-11T13:50:20;49.58;;;23.08;;
71207;SDS011;58938;49.868;8.646;2024-01-11T13:52:46;48.10;;;23.38;;
71207;SDS011;58938;49.868;8.646;2024-01-11T13:55:12;54.55;;;23.27;;
71207;SDS011;58938;49.868;8.646;2024-01-11T13:57:38;52.22;;;22.70;;
71207;SDS011;58938;49.868;8.646;2024-01-11T14:00:06;51.28;;;24.00;;
71207;SDS011;58938;49.868;8.646;2024-01-11T14:02:36;48.58;;;23.42;;
71207;SDS011;58938;49.868;8.646;2024-01-11T14:05:02;49.83;;;22.52;;
71207;SDS011;58938;49.868;8.646;2024-01-11T14:07:29;50.88;;;23.20;;
71207;SDS011;58938;49.868;8.646;2024-01-11T14:09:55;51.92;;;23.83;;
71207;SDS011;58938;49.868;8.646;2024-01-11T14:12:21;48.42;;;22.63;;
71207;SDS011;58938;49.868;8.646;2024-01-11T14:14:47;46.20;;;23.00;;
71207;SDS011;58938;49.868;8.646;2024-01-11T14:17:13;46.83;;;21.40;;
71207;SDS011;58938;49.868;8.646;2024-01-11T14:19:39;47.97;;;20.75;;